sensor_id;sensor_type;location;lat;lon;timestamp;P1;durP1;ratioP1;P2;durP2;ratioP2
62509;SDS011;48558;48.242;11.654;2023-02-28T00:01:14;1.58;;;1.48;;
62509;SDS011;48558;48.242;11.654;2023-02-28T00:05:28;3.03;;;1.90;;
62509;SDS011;48558;48.242;11.654;2023-02-28T00:09:41;0.68;;;0.43;;
62509;SDS011;48558;48.242;11.654;2023-02-28T00:13:53;1.23;;;1.23;;
62509;SDS011;48558;48.242;11.654;2023-02-28T00:18:19;2.35;;;1.80;;
62509;SDS011;48558;48.242;11.654;2023-02-28T00:22:31;1.55;;;1.42;;
62509;SDS011;48558;48.242;11.654;2023-02-28T00:26:44;0.75;;;0.75;;
62509;SDS011;48558;48.242;11.654;2023-02-28T00:30:56;1.27;;;1.17;;
62509;SDS011;48558;48.242;11.654;2023-02-28T00:35:09;1.40;;;1.33;;
62509;SDS011;48558;48.242;11.654;2023-02-28T00:39:23;0.88;;;0.88;;
62509;SDS011;48558;48.242;11.654;2023-02-28T00:43:36;1.30;;;1.20;;
62509;SDS011;48558;48.242;11.654;2023-02-28T00:47:50;1.60;;;0.93;;
62509;SDS011;48558;48.242;11.654;2023-02-28T00:52:03;1.23;;;1.13;;
62509;SDS011;48558;48.242;11.654;2023-02-28T00:56:16;7.63;;;1.35;;
62509;SDS011;48558;48.242;11.654;2023-02-28T01:00:30;2.03;;;1.83;;
62509;SDS011;48558;48.242;11.654;2023-02-28T01:04:52;3.63;;;1.63;;
62509;SDS011;48558;48.242;11.654;2023-02-28T01:09:06;0.63;;;0.63;;
62509;SDS011;48558;48.242;11.654;2023-02-28T01:13:19;2.50;;;1.95;;
62509;SDS011;48558;48.242;11.654;2023-02-28T01:17:42;1.08;;;1.08;;
62509;SDS011;48558;48.242;11.654;2023-02-28T01:22:05;2.40;;;1.38;;
62509;SDS011;48558;48.242;11.654;2023-02-28T01:26:19;3.58;;;1.60;;
62509;SDS011;48558;48.242;11.654;2023-02-28T01:30:39;3.25;;;1.98;;
62509;SDS011;48558;48.242;11.654;2023-02-28T01:34:51;1.67;;;1.58;;
62509;SDS011;48558;48.242;11.654;2023-02-28T01:39:04;0.75;;;0.55;;
62509;SDS011;48558;48.242;11.654;2023-02-28T01:43:20;3.63;;;1.92;;
62509;SDS011;48558;48.242;11.654;2023-02-28T01:47:34;2.47;;;2.20;;
62509;SDS011;48558;48.242;11.654;2023-02-28T01:56:07;1.42;;;1.33;;
62509;SDS011;48558;48.242;11.654;2023-02-28T02:00:25;2.03;;;1.88;;
62509;SDS011;48558;48.242;11.654;2023-02-28T02:04:45;2.08;;;1.33;;
62509;SDS011;48558;48.242;11.654;2023-02-28T02:09:15;2.28;;;1.67;;
62509;SDS011;48558;48.242;11.654;2023-02-28T02:18:29;1.27;;;1.17;;
62509;SDS011;48558;48.242;11.654;2023-02-28T02:27:39;0.85;;;0.85;;
62509;SDS011;48558;48.242;11.654;2023-02-28T02:37:15;1.40;;;1.10;;
62509;SDS011;48558;48.242;11.654;2023-02-28T02:41:47;2.15;;;1.90;;
62509;SDS011;48558;48.242;11.654;2023-02-28T02:46:19;4.70;;;1.95;;
62509;SDS011;48558;48.242;11.654;2023-02-28T02:50:40;1.83;;;1.50;;
62509;SDS011;48558;48.242;11.654;2023-02-28T02:54:58;1.55;;;1.45;;
62509;SDS011;48558;48.242;11.654;2023-02-28T02:59:13;0.98;;;0.98;;
62509;SDS011;48558;48.242;11.654;2023-02-28T03:03:33;2.05;;;1.85;;
62509;SDS011;48558;48.242;11.654;2023-02-28T03:07:46;1.35;;;1.20;;
62509;SDS011;48558;48.242;11.654;2023-02-28T03:11:59;4.18;;;2.33;;
62509;SDS011;48558;48.242;11.654;2023-02-28T03:20:58;2.33;;;1.55;;
62509;SDS011;48558;48.242;11.654;2023-02-28T03:26:12;2.38;;;1.50;;
62509;SDS011;48558;48.242;11.654;2023-02-28T03:30:22;1.17;;;0.75;;
62509;SDS011;48558;48.242;11.654;2023-02-28T03:34:42;2.72;;;2.47;;
62509;SDS011;48558;48.242;11.654;2023-02-28T03:39:09;1.98;;;1.40;;
62509;SDS011;48558;48.242;11.654;2023-02-28T03:43:29;1.67;;;1.58;;
62509;SDS011;48558;48.242;11.654;2023-02-28T03:47:49;3.17;;;2.13;;
62509;SDS011;48558;48.242;11.654;2023-02-28T03:52:09;1.88;;;1.73;;
62509;SDS011;48558;48.242;11.654;2023-02-28T03:56:23;2.58;;;1.77;;
62509;SDS011;48558;48.242;11.654;2023-02-28T04:00:48;3.10;;;2.38;;
62509;SDS011;48558;48.242;11.654;2023-02-28T04:05:10;1.33;;;1.15;;
62509;SDS011;48558;48.242;11.654;2023-02-28T04:09:23;2.40;;;1.75;;
62509;SDS011;48558;48.242;11.654;2023-02-28T04:13:35;1.13;;;1.10;;
62509;SDS011;48558;48.242;11.654;2023-02-28T04:17:48;3.63;;;2.10;;
62509;SDS011;48558;48.242;11.654;2023-02-28T04:22:00;2.08;;;1.90;;
62509;SDS011;48558;48.242;11.654;2023-02-28T04:26:13;2.22;;;1.85;;
62509;SDS011;48558;48.242;11.654;2023-02-28T04:30:25;4.40;;;3.20;;
62509;SDS011;48558;48.242;11.654;2023-02-28T04:34:38;3.05;;;2.58;;
62509;SDS011;48558;48.242;11.654;2023-02-28T04:38:51;2.05;;;1.50;;
62509;SDS011;48558;48.242;11.654;2023-02-28T04:43:04;3.63;;;3.30;;
62509;SDS011;48558;48.242;11.654;2023-02-28T04:47:16;2.35;;;2.15;;
62509;SDS011;48558;48.242;11.654;2023-02-28T04:51:29;2.35;;;2.15;;
62509;SDS011;48558;48.242;11.654;2023-02-28T04:55:42;5.00;;;3.13;;
62509;SDS011;48558;48.242;11.654;2023-02-28T04:59:55;4.68;;;3.50;;
62509;SDS011;48558;48.242;11.654;2023-02-28T05:04:08;2.60;;;1.92;;
62509;SDS011;48558;48.242;11.654;2023-02-28T05:08:21;3.28;;;2.53;;
62509;SDS011;48558;48.242;11.654;2023-02-28T05:12:33;1.08;;;0.82;;
62509;SDS011;48558;48.242;11.654;2023-02-28T05:16:46;4.18;;;2.95;;
62509;SDS011;48558;48.242;11.654;2023-02-28T05:20:59;5.10;;;3.38;;
62509;SDS011;48558;48.242;11.654;2023-02-28T05:25:16;3.85;;;2.30;;
62509;SDS011;48558;48.242;11.654;2023-02-28T05:29:35;3.30;;;2.40;;
62509;SDS011;48558;48.242;11.654;2023-02-28T05:33:53;3.10;;;2.47;;
62509;SDS011;48558;48.242;11.654;2023-02-28T05:38:06;2.28;;;2.05;;
62509;SDS011;48558;48.242;11.654;2023-02-28T05:42:18;5.53;;;3.55;;
62509;SDS011;48558;48.242;11.654;2023-02-28T05:46:31;3.80;;;3.22;;
62509;SDS011;48558;48.242;11.654;2023-02-28T05:50:44;3.90;;;3.05;;
62509;SDS011;48558;48.242;11.654;2023-02-28T05:54:58;1.60;;;1.50;;
62509;SDS011;48558;48.242;11.654;2023-02-28T05:59:13;1.88;;;1.70;;
62509;SDS011;48558;48.242;11.654;2023-02-28T06:03:26;3.28;;;2.95;;
62509;SDS011;48558;48.242;11.654;2023-02-28T06:07:39;3.13;;;2.50;;
62509;SDS011;48558;48.242;11.654;2023-02-28T06:11:52;2.20;;;1.92;;
62509;SDS011;48558;48.242;11.654;2023-02-28T06:16:04;2.45;;;2.25;;
62509;SDS011;48558;48.242;11.654;2023-02-28T06:20:17;2.90;;;2.25;;
62509;SDS011;48558;48.242;11.654;2023-02-28T06:24:29;2.33;;;2.15;;
62509;SDS011;48558;48.242;11.654;2023-02-28T06:28:43;5.20;;;3.33;;
62509;SDS011;48558;48.242;11.654;2023-02-28T06:32:55;1.40;;;1.30;;
62509;SDS011;48558;48.242;11.654;2023-02-28T06:37:08;4.13;;;3.67;;
62509;SDS011;48558;48.242;11.654;2023-02-28T06:41:21;2.53;;;2.33;;
62509;SDS011;48558;48.242;11.654;2023-02-28T06:45:42;2.58;;;1.98;;
62509;SDS011;48558;48.242;11.654;2023-02-28T06:49:56;4.95;;;3.08;;
62509;SDS011;48558;48.242;11.654;2023-02-28T06:54:08;4.80;;;3.35;;
62509;SDS011;48558;48.242;11.654;2023-02-28T06:58:27;4.53;;;2.75;;
62509;SDS011;48558;48.242;11.654;2023-02-28T07:02:39;4.65;;;3.75;;
62509;SDS011;48558;48.242;11.654;2023-02-28T07:06:52;2.15;;;2.03;;
62509;SDS011;48558;48.242;11.654;2023-02-28T07:11:07;5.60;;;2.70;;
62509;SDS011;48558;48.242;11.654;2023-02-28T07:15:36;4.78;;;3.15;;
62509;SDS011;48558;48.242;11.654;2023-02-28T07:19:53;6.05;;;4.50;;
62509;SDS011;48558;48.242;11.654;2023-02-28T07:24:05;10.57;;;5.03;;
62509;SDS011;48558;48.242;11.654;2023-02-28T07:28:18;6.07;;;3.30;;
62509;SDS011;48558;48.242;11.654;2023-02-28T07:32:39;3.47;;;3.17;;
62509;SDS011;48558;48.242;11.654;2023-02-28T07:36:55;4.75;;;3.15;;
62509;SDS011;48558;48.242;11.654;2023-02-28T07:41:10;3.33;;;2.72;;
62509;SDS011;48558;48.242;11.654;2023-02-28T07:45:22;6.13;;;3.90;;
62509;SDS011;48558;48.242;11.654;2023-02-28T07:49:35;5.35;;;4.13;;
62509;SDS011;48558;48.242;11.654;2023-02-28T07:53:48;11.45;;;4.68;;
62509;SDS011;48558;48.242;11.654;2023-02-28T07:58:11;1.95;;;1.80;;
62509;SDS011;48558;48.242;11.654;2023-02-28T08:02:24;6.45;;;4.05;;
62509;SDS011;48558;48.242;11.654;2023-02-28T08:06:36;8.00;;;4.60;;
62509;SDS011;48558;48.242;11.654;2023-02-28T08:10:49;6.38;;;4.30;;
62509;SDS011;48558;48.242;11.654;2023-02-28T08:15:01;5.60;;;4.28;;
62509;SDS011;48558;48.242;11.654;2023-02-28T08:19:14;5.65;;;4.60;;
62509;SDS011;48558;48.242;11.654;2023-02-28T08:23:27;8.05;;;4.43;;
62509;SDS011;48558;48.242;11.654;2023-02-28T08:27:39;5.25;;;4.20;;
62509;SDS011;48558;48.242;11.654;2023-02-28T08:31:52;4.38;;;3.95;;
62509;SDS011;48558;48.242;11.654;2023-02-28T08:36:05;9.18;;;4.72;;
62509;SDS011;48558;48.242;11.654;2023-02-28T08:40:19;7.03;;;5.22;;
62509;SDS011;48558;48.242;11.654;2023-02-28T08:44:42;9.18;;;4.97;;
62509;SDS011;48558;48.242;11.654;2023-02-28T08:48:55;5.05;;;4.22;;
62509;SDS011;48558;48.242;11.654;2023-02-28T08:53:12;4.63;;;4.03;;
62509;SDS011;48558;48.242;11.654;2023-02-28T08:57:24;9.38;;;6.40;;
62509;SDS011;48558;48.242;11.654;2023-02-28T09:01:40;8.13;;;5.25;;
62509;SDS011;48558;48.242;11.654;2023-02-28T09:05:57;4.45;;;4.05;;
62509;SDS011;48558;48.242;11.654;2023-02-28T09:10:12;5.28;;;4.72;;
62509;SDS011;48558;48.242;11.654;2023-02-28T09:14:24;6.50;;;4.47;;
62509;SDS011;48558;48.242;11.654;2023-02-28T09:18:37;6.93;;;5.22;;
62509;SDS011;48558;48.242;11.654;2023-02-28T09:22:50;7.07;;;5.38;;
62509;SDS011;48558;48.242;11.654;2023-02-28T09:27:03;7.00;;;4.60;;
62509;SDS011;48558;48.242;11.654;2023-02-28T09:31:22;9.55;;;7.07;;
62509;SDS011;48558;48.242;11.654;2023-02-28T09:35:37;9.80;;;5.60;;
62509;SDS011;48558;48.242;11.654;2023-02-28T09:39:50;9.45;;;5.60;;
62509;SDS011;48558;48.242;11.654;2023-02-28T09:44:02;9.98;;;6.15;;
62509;SDS011;48558;48.242;11.654;2023-02-28T09:48:19;7.53;;;5.05;;
62509;SDS011;48558;48.242;11.654;2023-02-28T09:52:35;13.32;;;7.40;;
62509;SDS011;48558;48.242;11.654;2023-02-28T10:06:26;9.13;;;5.68;;
62509;SDS011;48558;48.242;11.654;2023-02-28T10:10:49;7.32;;;5.50;;
62509;SDS011;48558;48.242;11.654;2023-02-28T10:15:07;8.43;;;6.28;;
62509;SDS011;48558;48.242;11.654;2023-02-28T10:24:03;7.20;;;4.97;;
62509;SDS011;48558;48.242;11.654;2023-02-28T10:28:43;7.00;;;5.47;;
62509;SDS011;48558;48.242;11.654;2023-02-28T10:32:55;7.82;;;5.63;;
62509;SDS011;48558;48.242;11.654;2023-02-28T10:37:08;8.13;;;5.80;;
62509;SDS011;48558;48.242;11.654;2023-02-28T10:41:27;6.15;;;5.25;;
62509;SDS011;48558;48.242;11.654;2023-02-28T10:45:58;8.23;;;5.43;;
62509;SDS011;48558;48.242;11.654;2023-02-28T10:50:41;9.98;;;6.20;;
62509;SDS011;48558;48.242;11.654;2023-02-28T10:55:14;7.93;;;5.53;;
62509;SDS011;48558;48.242;11.654;2023-02-28T10:59:36;5.50;;;4.57;;
62509;SDS011;48558;48.242;11.654;2023-02-28T11:03:49;10.02;;;6.20;;
62509;SDS011;48558;48.242;11.654;2023-02-28T11:12:33;7.40;;;5.35;;
62509;SDS011;48558;48.242;11.654;2023-02-28T11:17:11;6.70;;;5.18;;
62509;SDS011;48558;48.242;11.654;2023-02-28T11:21:28;11.50;;;6.28;;
62509;SDS011;48558;48.242;11.654;2023-02-28T11:26:00;8.38;;;5.47;;
62509;SDS011;48558;48.242;11.654;2023-02-28T11:30:24;7.78;;;5.72;;
62509;SDS011;48558;48.242;11.654;2023-02-28T11:34:40;7.40;;;5.88;;
62509;SDS011;48558;48.242;11.654;2023-02-28T11:38:54;9.23;;;5.38;;
62509;SDS011;48558;48.242;11.654;2023-02-28T11:43:30;7.32;;;4.60;;
62509;SDS011;48558;48.242;11.654;2023-02-28T11:48:13;7.25;;;4.78;;
62509;SDS011;48558;48.242;11.654;2023-02-28T11:52:52;7.57;;;5.85;;
62509;SDS011;48558;48.242;11.654;2023-02-28T12:06:28;8.02;;;5.50;;
62509;SDS011;48558;48.242;11.654;2023-02-28T12:20:37;10.15;;;6.53;;
62509;SDS011;48558;48.242;11.654;2023-02-28T12:30:02;5.65;;;5.00;;
62509;SDS011;48558;48.242;11.654;2023-02-28T12:34:31;8.05;;;5.43;;
62509;SDS011;48558;48.242;11.654;2023-02-28T12:38:56;5.25;;;4.10;;
62509;SDS011;48558;48.242;11.654;2023-02-28T12:43:22;7.03;;;5.72;;
62509;SDS011;48558;48.242;11.654;2023-02-28T12:47:48;7.18;;;5.38;;
62509;SDS011;48558;48.242;11.654;2023-02-28T12:52:20;7.25;;;4.68;;
62509;SDS011;48558;48.242;11.654;2023-02-28T13:10:57;9.02;;;6.00;;
62509;SDS011;48558;48.242;11.654;2023-02-28T13:15:19;9.05;;;5.13;;
62509;SDS011;48558;48.242;11.654;2023-02-28T13:19:37;5.28;;;3.80;;
62509;SDS011;48558;48.242;11.654;2023-02-28T13:24:08;10.18;;;6.03;;
62509;SDS011;48558;48.242;11.654;2023-02-28T13:28:56;10.43;;;6.70;;
62509;SDS011;48558;48.242;11.654;2023-02-28T13:37:46;6.03;;;5.07;;
62509;SDS011;48558;48.242;11.654;2023-02-28T13:51:17;9.00;;;6.07;;
62509;SDS011;48558;48.242;11.654;2023-02-28T13:56:18;7.25;;;5.07;;
62509;SDS011;48558;48.242;11.654;2023-02-28T14:10:30;7.13;;;5.53;;
62509;SDS011;48558;48.242;11.654;2023-02-28T14:20:14;8.35;;;4.80;;
62509;SDS011;48558;48.242;11.654;2023-02-28T14:24:32;5.90;;;4.78;;
62509;SDS011;48558;48.242;11.654;2023-02-28T14:29:07;7.80;;;5.65;;
62509;SDS011;48558;48.242;11.654;2023-02-28T14:38:32;7.25;;;5.45;;
62509;SDS011;48558;48.242;11.654;2023-02-28T14:43:18;9.45;;;5.72;;
62509;SDS011;48558;48.242;11.654;2023-02-28T14:47:34;8.68;;;6.10;;
62509;SDS011;48558;48.242;11.654;2023-02-28T14:51:49;9.10;;;5.78;;
62509;SDS011;48558;48.242;11.654;2023-02-28T14:56:24;10.45;;;5.40;;
62509;SDS011;48558;48.242;11.654;2023-02-28T15:00:47;7.95;;;5.88;;
62509;SDS011;48558;48.242;11.654;2023-02-28T15:05:24;6.97;;;4.82;;
62509;SDS011;48558;48.242;11.654;2023-02-28T15:09:38;7.13;;;4.72;;
62509;SDS011;48558;48.242;11.654;2023-02-28T15:13:52;8.70;;;6.38;;
62509;SDS011;48558;48.242;11.654;2023-02-28T15:22:55;5.57;;;4.10;;
62509;SDS011;48558;48.242;11.654;2023-02-28T15:27:13;7.95;;;5.63;;
62509;SDS011;48558;48.242;11.654;2023-02-28T15:31:44;5.88;;;4.88;;
62509;SDS011;48558;48.242;11.654;2023-02-28T15:36:15;9.23;;;5.97;;
62509;SDS011;48558;48.242;11.654;2023-02-28T15:40:40;3.33;;;2.78;;
62509;SDS011;48558;48.242;11.654;2023-02-28T15:44:55;8.43;;;5.55;;
62509;SDS011;48558;48.242;11.654;2023-02-28T15:49:16;9.70;;;6.60;;
62509;SDS011;48558;48.242;11.654;2023-02-28T15:53:33;7.63;;;5.53;;
62509;SDS011;48558;48.242;11.654;2023-02-28T16:02:18;6.15;;;4.90;;
62509;SDS011;48558;48.242;11.654;2023-02-28T16:06:38;8.43;;;6.13;;
62509;SDS011;48558;48.242;11.654;2023-02-28T16:10:54;9.70;;;5.90;;
62509;SDS011;48558;48.242;11.654;2023-02-28T16:15:08;8.07;;;5.65;;
62509;SDS011;48558;48.242;11.654;2023-02-28T16:19:31;8.18;;;5.57;;
62509;SDS011;48558;48.242;11.654;2023-02-28T16:23:45;9.63;;;5.88;;
62509;SDS011;48558;48.242;11.654;2023-02-28T16:27:59;6.15;;;5.35;;
62509;SDS011;48558;48.242;11.654;2023-02-28T16:32:15;6.10;;;4.90;;
62509;SDS011;48558;48.242;11.654;2023-02-28T16:36:28;8.82;;;5.72;;
62509;SDS011;48558;48.242;11.654;2023-02-28T16:40:41;7.95;;;5.82;;
62509;SDS011;48558;48.242;11.654;2023-02-28T16:44:54;10.65;;;6.47;;
62509;SDS011;48558;48.242;11.654;2023-02-28T16:49:11;8.88;;;4.82;;
62509;SDS011;48558;48.242;11.654;2023-02-28T16:53:25;7.35;;;5.70;;
62509;SDS011;48558;48.242;11.654;2023-02-28T16:57:37;10.00;;;6.38;;
62509;SDS011;48558;48.242;11.654;2023-02-28T17:01:51;7.55;;;5.30;;
62509;SDS011;48558;48.242;11.654;2023-02-28T17:06:04;7.32;;;5.53;;
62509;SDS011;48558;48.242;11.654;2023-02-28T17:10:24;6.03;;;4.35;;
62509;SDS011;48558;48.242;11.654;2023-02-28T17:14:38;8.00;;;5.72;;
62509;SDS011;48558;48.242;11.654;2023-02-28T17:18:51;7.43;;;5.13;;
62509;SDS011;48558;48.242;11.654;2023-02-28T17:23:06;9.63;;;5.55;;
62509;SDS011;48558;48.242;11.654;2023-02-28T17:27:19;10.52;;;6.10;;
62509;SDS011;48558;48.242;11.654;2023-02-28T17:31:31;9.48;;;5.88;;
62509;SDS011;48558;48.242;11.654;2023-02-28T17:35:44;7.55;;;5.40;;
62509;SDS011;48558;48.242;11.654;2023-02-28T17:39:57;8.18;;;5.65;;
62509;SDS011;48558;48.242;11.654;2023-02-28T17:44:10;8.95;;;5.47;;
62509;SDS011;48558;48.242;11.654;2023-02-28T17:48:22;8.95;;;5.65;;
62509;SDS011;48558;48.242;11.654;2023-02-28T17:52:35;8.77;;;4.88;;
62509;SDS011;48558;48.242;11.654;2023-02-28T17:56:48;8.40;;;6.22;;
62509;SDS011;48558;48.242;11.654;2023-02-28T18:01:01;9.52;;;6.43;;
62509;SDS011;48558;48.242;11.654;2023-02-28T18:05:15;10.27;;;6.68;;
62509;SDS011;48558;48.242;11.654;2023-02-28T18:09:27;8.30;;;5.70;;
62509;SDS011;48558;48.242;11.654;2023-02-28T18:13:40;10.30;;;5.93;;
62509;SDS011;48558;48.242;11.654;2023-02-28T18:17:53;11.55;;;6.78;;
62509;SDS011;48558;48.242;11.654;2023-02-28T18:22:05;11.57;;;6.95;;
62509;SDS011;48558;48.242;11.654;2023-02-28T18:26:19;6.93;;;4.97;;
62509;SDS011;48558;48.242;11.654;2023-02-28T18:30:34;12.02;;;7.38;;
62509;SDS011;48558;48.242;11.654;2023-02-28T18:34:48;9.45;;;6.22;;
62509;SDS011;48558;48.242;11.654;2023-02-28T18:39:00;5.05;;;4.35;;
62509;SDS011;48558;48.242;11.654;2023-02-28T18:43:13;9.23;;;6.68;;
62509;SDS011;48558;48.242;11.654;2023-02-28T18:47:25;11.88;;;7.07;;
62509;SDS011;48558;48.242;11.654;2023-02-28T18:51:38;8.02;;;5.38;;
62509;SDS011;48558;48.242;11.654;2023-02-28T18:55:51;8.05;;;5.93;;
62509;SDS011;48558;48.242;11.654;2023-02-28T19:00:03;11.57;;;6.97;;
62509;SDS011;48558;48.242;11.654;2023-02-28T19:04:20;10.50;;;5.00;;
62509;SDS011;48558;48.242;11.654;2023-02-28T19:08:32;6.25;;;5.15;;
62509;SDS011;48558;48.242;11.654;2023-02-28T19:12:45;7.43;;;5.07;;
62509;SDS011;48558;48.242;11.654;2023-02-28T19:16:58;13.02;;;6.55;;
62509;SDS011;48558;48.242;11.654;2023-02-28T19:21:11;10.18;;;6.55;;
62509;SDS011;48558;48.242;11.654;2023-02-28T19:25:26;11.10;;;5.85;;
62509;SDS011;48558;48.242;11.654;2023-02-28T19:29:39;8.18;;;6.78;;
62509;SDS011;48558;48.242;11.654;2023-02-28T19:34:02;6.75;;;4.35;;
62509;SDS011;48558;48.242;11.654;2023-02-28T19:38:15;9.32;;;6.40;;
62509;SDS011;48558;48.242;11.654;2023-02-28T19:42:27;9.77;;;6.53;;
62509;SDS011;48558;48.242;11.654;2023-02-28T19:46:44;11.40;;;6.47;;
62509;SDS011;48558;48.242;11.654;2023-02-28T19:51:00;11.13;;;6.47;;
62509;SDS011;48558;48.242;11.654;2023-02-28T19:55:16;11.95;;;8.00;;
62509;SDS011;48558;48.242;11.654;2023-02-28T19:59:29;9.98;;;6.45;;
62509;SDS011;48558;48.242;11.654;2023-02-28T20:04:00;13.68;;;8.52;;
62509;SDS011;48558;48.242;11.654;2023-02-28T20:08:20;14.45;;;8.65;;
62509;SDS011;48558;48.242;11.654;2023-02-28T20:12:32;12.35;;;7.97;;
62509;SDS011;48558;48.242;11.654;2023-02-28T20:16:45;9.75;;;7.03;;
62509;SDS011;48558;48.242;11.654;2023-02-28T20:21:02;16.45;;;8.43;;
62509;SDS011;48558;48.242;11.654;2023-02-28T20:25:25;8.57;;;5.97;;
62509;SDS011;48558;48.242;11.654;2023-02-28T20:29:38;10.02;;;7.32;;
62509;SDS011;48558;48.242;11.654;2023-02-28T20:33:51;13.82;;;7.47;;
62509;SDS011;48558;48.242;11.654;2023-02-28T20:38:03;13.00;;;8.20;;
62509;SDS011;48558;48.242;11.654;2023-02-28T20:42:16;11.88;;;7.13;;
62509;SDS011;48558;48.242;11.654;2023-02-28T20:46:29;11.20;;;7.07;;
62509;SDS011;48558;48.242;11.654;2023-02-28T20:50:49;8.27;;;6.25;;
62509;SDS011;48558;48.242;11.654;2023-02-28T20:55:07;11.50;;;7.40;;
62509;SDS011;48558;48.242;11.654;2023-02-28T20:59:20;8.95;;;5.53;;
62509;SDS011;48558;48.242;11.654;2023-02-28T21:03:33;12.50;;;8.07;;
62509;SDS011;48558;48.242;11.654;2023-02-28T21:07:45;13.07;;;8.43;;
62509;SDS011;48558;48.242;11.654;2023-02-28T21:11:58;12.30;;;8.05;;
62509;SDS011;48558;48.242;11.654;2023-02-28T21:16:11;14.70;;;8.20;;
62509;SDS011;48558;48.242;11.654;2023-02-28T21:20:26;8.77;;;6.30;;
62509;SDS011;48558;48.242;11.654;2023-02-28T21:24:39;11.13;;;7.75;;
62509;SDS011;48558;48.242;11.654;2023-02-28T21:28:52;12.88;;;7.43;;
62509;SDS011;48558;48.242;11.654;2023-02-28T21:33:08;10.70;;;6.70;;
62509;SDS011;48558;48.242;11.654;2023-02-28T21:37:20;11.63;;;7.22;;
62509;SDS011;48558;48.242;11.654;2023-02-28T21:41:38;10.75;;;6.75;;
62509;SDS011;48558;48.242;11.654;2023-02-28T21:45:52;13.70;;;7.22;;
62509;SDS011;48558;48.242;11.654;2023-02-28T21:50:05;8.65;;;7.00;;
62509;SDS011;48558;48.242;11.654;2023-02-28T21:54:18;7.20;;;5.22;;
62509;SDS011;48558;48.242;11.654;2023-02-28T21:58:31;10.07;;;7.45;;
62509;SDS011;48558;48.242;11.654;2023-02-28T22:02:43;12.43;;;7.88;;
62509;SDS011;48558;48.242;11.654;2023-02-28T22:06:56;11.60;;;7.00;;
62509;SDS011;48558;48.242;11.654;2023-02-28T22:11:08;12.10;;;7.18;;
62509;SDS011;48558;48.242;11.654;2023-02-28T22:15:22;15.98;;;8.07;;
62509;SDS011;48558;48.242;11.654;2023-02-28T22:19:35;11.18;;;7.18;;
62509;SDS011;48558;48.242;11.654;2023-02-28T22:23:48;9.63;;;6.35;;
62509;SDS011;48558;48.242;11.654;2023-02-28T22:28:01;12.85;;;7.07;;
62509;SDS011;48558;48.242;11.654;2023-02-28T22:32:13;11.57;;;6.75;;
62509;SDS011;48558;48.242;11.654;2023-02-28T22:36:26;10.07;;;6.30;;
62509;SDS011;48558;48.242;11.654;2023-02-28T22:40:40;13.95;;;8.43;;
62509;SDS011;48558;48.242;11.654;2023-02-28T22:44:53;3.08;;;2.80;;
62509;SDS011;48558;48.242;11.654;2023-02-28T22:49:05;10.98;;;6.97;;
62509;SDS011;48558;48.242;11.654;2023-02-28T22:53:18;7.57;;;5.25;;
62509;SDS011;48558;48.242;11.654;2023-02-28T22:57:30;11.68;;;7.60;;
62509;SDS011;48558;48.242;11.654;2023-02-28T23:01:53;11.20;;;7.50;;
62509;SDS011;48558;48.242;11.654;2023-02-28T23:06:17;10.27;;;6.70;;
62509;SDS011;48558;48.242;11.654;2023-02-28T23:10:42;13.30;;;7.82;;
62509;SDS011;48558;48.242;11.654;2023-02-28T23:14:55;11.52;;;7.60;;
62509;SDS011;48558;48.242;11.654;2023-02-28T23:19:09;11.80;;;7.20;;
62509;SDS011;48558;48.242;11.654;2023-02-28T23:23:27;14.57;;;8.38;;
62509;SDS011;48558;48.242;11.654;2023-02-28T23:27:40;6.18;;;4.90;;
62509;SDS011;48558;48.242;11.654;2023-02-28T23:31:53;12.80;;;7.18;;
62509;SDS011;48558;48.242;11.654;2023-02-28T23:36:07;13.30;;;6.65;;
62509;SDS011;48558;48.242;11.654;2023-02-28T23:40:22;11.70;;;7.72;;
62509;SDS011;48558;48.242;11.654;2023-02-28T23:44:35;8.57;;;6.43;;
62509;SDS011;48558;48.242;11.654;2023-02-28T23:48:47;11.10;;;7.32;;
62509;SDS011;48558;48.242;11.654;2023-02-28T23:53:00;10.40;;;7.32;;
62509;SDS011;48558;48.242;11.654;2023-02-28T23:57:22;11.32;;;7.65;;
